sensor_id;sensor_type;location;lat;lon;timestamp;P1;durP1;ratioP1;P2;durP2;ratioP2
17253;SDS011;32542;52.832;13.816;2023-04-07T00:01:38;7.22;;;3.95;;
17253;SDS011;32542;52.832;13.816;2023-04-07T00:04:41;7.82;;;4.07;;
17253;SDS011;32542;52.832;13.816;2023-04-07T00:07:44;9.30;;;4.35;;
17253;SDS011;32542;52.832;13.816;2023-04-07T00:10:57;4.40;;;3.40;;
17253;SDS011;32542;52.832;13.816;2023-04-07T00:14:01;7.30;;;3.90;;
17253;SDS011;32542;52.832;13.816;2023-04-07T00:17:05;8.25;;;4.13;;
17253;SDS011;32542;52.832;13.816;2023-04-07T00:20:07;7.20;;;3.47;;
17253;SDS011;32542;52.832;13.816;2023-04-07T00:23:11;6.57;;;3.80;;
17253;SDS011;32542;52.832;13.816;2023-04-07T00:26:13;6.10;;;4.18;;
17253;SDS011;32542;52.832;13.816;2023-04-07T00:29:19;6.28;;;3.83;;
17253;SDS011;32542;52.832;13.816;2023-04-07T00:32:22;4.72;;;3.47;;
17253;SDS011;32542;52.832;13.816;2023-04-07T00:35:25;8.82;;;3.72;;
17253;SDS011;32542;52.832;13.816;2023-04-07T00:38:28;6.38;;;3.97;;
17253;SDS011;32542;52.832;13.816;2023-04-07T00:41:32;4.65;;;3.65;;
17253;SDS011;32542;52.832;13.816;2023-04-07T00:44:37;6.85;;;4.00;;
17253;SDS011;32542;52.832;13.816;2023-04-07T00:47:40;5.45;;;3.53;;
17253;SDS011;32542;52.832;13.816;2023-04-07T00:50:44;5.88;;;3.65;;
17253;SDS011;32542;52.832;13.816;2023-04-07T00:53:47;5.70;;;3.97;;
17253;SDS011;32542;52.832;13.816;2023-04-07T00:56:51;5.70;;;3.53;;
17253;SDS011;32542;52.832;13.816;2023-04-07T00:59:56;5.22;;;3.50;;
17253;SDS011;32542;52.832;13.816;2023-04-07T01:03:00;5.47;;;3.58;;
17253;SDS011;32542;52.832;13.816;2023-04-07T01:06:08;5.47;;;3.83;;
17253;SDS011;32542;52.832;13.816;2023-04-07T01:09:18;5.95;;;3.63;;
17253;SDS011;32542;52.832;13.816;2023-04-07T01:12:28;5.50;;;3.58;;
17253;SDS011;32542;52.832;13.816;2023-04-07T01:15:39;6.00;;;3.75;;
17253;SDS011;32542;52.832;13.816;2023-04-07T01:18:43;5.15;;;3.35;;
17253;SDS011;32542;52.832;13.816;2023-04-07T01:21:52;6.13;;;3.88;;
17253;SDS011;32542;52.832;13.816;2023-04-07T01:32:21;6.57;;;3.38;;
17253;SDS011;32542;52.832;13.816;2023-04-07T01:35:28;4.60;;;3.33;;
17253;SDS011;32542;52.832;13.816;2023-04-07T01:38:33;5.53;;;3.30;;
17253;SDS011;32542;52.832;13.816;2023-04-07T01:41:37;4.60;;;3.20;;
17253;SDS011;32542;52.832;13.816;2023-04-07T01:44:41;5.10;;;3.00;;
17253;SDS011;32542;52.832;13.816;2023-04-07T01:47:47;5.32;;;3.65;;
17253;SDS011;32542;52.832;13.816;2023-04-07T01:50:51;5.35;;;3.35;;
17253;SDS011;32542;52.832;13.816;2023-04-07T01:53:56;6.75;;;3.90;;
17253;SDS011;32542;52.832;13.816;2023-04-07T01:57:00;4.78;;;3.38;;
17253;SDS011;32542;52.832;13.816;2023-04-07T02:00:03;7.85;;;3.92;;
17253;SDS011;32542;52.832;13.816;2023-04-07T02:03:17;5.07;;;3.42;;
17253;SDS011;32542;52.832;13.816;2023-04-07T02:06:26;3.90;;;3.03;;
17253;SDS011;32542;52.832;13.816;2023-04-07T02:09:40;7.70;;;3.28;;
17253;SDS011;32542;52.832;13.816;2023-04-07T02:12:45;6.20;;;3.33;;
17253;SDS011;32542;52.832;13.816;2023-04-07T02:15:52;4.40;;;2.90;;
17253;SDS011;32542;52.832;13.816;2023-04-07T02:18:58;4.75;;;3.05;;
17253;SDS011;32542;52.832;13.816;2023-04-07T02:22:03;4.18;;;2.90;;
17253;SDS011;32542;52.832;13.816;2023-04-07T02:25:19;4.85;;;3.15;;
17253;SDS011;32542;52.832;13.816;2023-04-07T02:28:27;4.80;;;3.47;;
17253;SDS011;32542;52.832;13.816;2023-04-07T02:31:30;6.75;;;3.25;;
17253;SDS011;32542;52.832;13.816;2023-04-07T02:34:35;3.97;;;2.75;;
17253;SDS011;32542;52.832;13.816;2023-04-07T02:37:40;4.65;;;3.30;;
17253;SDS011;32542;52.832;13.816;2023-04-07T02:40:43;4.60;;;3.20;;
17253;SDS011;32542;52.832;13.816;2023-04-07T02:43:46;4.72;;;3.25;;
17253;SDS011;32542;52.832;13.816;2023-04-07T02:46:49;4.95;;;3.03;;
17253;SDS011;32542;52.832;13.816;2023-04-07T02:49:54;4.60;;;3.30;;
17253;SDS011;32542;52.832;13.816;2023-04-07T02:52:57;4.95;;;3.10;;
17253;SDS011;32542;52.832;13.816;2023-04-07T02:55:59;5.00;;;3.30;;
17253;SDS011;32542;52.832;13.816;2023-04-07T02:59:02;4.63;;;3.00;;
17253;SDS011;32542;52.832;13.816;2023-04-07T03:02:11;4.43;;;3.42;;
17253;SDS011;32542;52.832;13.816;2023-04-07T03:05:15;5.75;;;3.05;;
17253;SDS011;32542;52.832;13.816;2023-04-07T03:08:18;3.95;;;3.08;;
17253;SDS011;32542;52.832;13.816;2023-04-07T03:11:22;4.13;;;3.20;;
17253;SDS011;32542;52.832;13.816;2023-04-07T03:14:25;5.43;;;3.53;;
17253;SDS011;32542;52.832;13.816;2023-04-07T03:17:28;5.50;;;3.10;;
17253;SDS011;32542;52.832;13.816;2023-04-07T03:20:34;4.80;;;3.17;;
17253;SDS011;32542;52.832;13.816;2023-04-07T03:23:42;4.60;;;3.42;;
17253;SDS011;32542;52.832;13.816;2023-04-07T03:26:46;4.10;;;3.10;;
17253;SDS011;32542;52.832;13.816;2023-04-07T03:30:08;3.88;;;2.85;;
17253;SDS011;32542;52.832;13.816;2023-04-07T03:33:12;4.32;;;3.00;;
17253;SDS011;32542;52.832;13.816;2023-04-07T03:36:17;6.15;;;3.05;;
17253;SDS011;32542;52.832;13.816;2023-04-07T03:39:21;3.47;;;2.78;;
17253;SDS011;32542;52.832;13.816;2023-04-07T03:42:28;4.57;;;3.13;;
17253;SDS011;32542;52.832;13.816;2023-04-07T03:45:36;3.78;;;2.88;;
17253;SDS011;32542;52.832;13.816;2023-04-07T03:48:40;4.35;;;3.05;;
17253;SDS011;32542;52.832;13.816;2023-04-07T03:51:45;4.15;;;3.20;;
17253;SDS011;32542;52.832;13.816;2023-04-07T03:54:51;4.05;;;3.10;;
17253;SDS011;32542;52.832;13.816;2023-04-07T03:57:58;5.30;;;3.10;;
17253;SDS011;32542;52.832;13.816;2023-04-07T04:01:05;4.72;;;2.65;;
17253;SDS011;32542;52.832;13.816;2023-04-07T04:04:09;6.55;;;3.45;;
17253;SDS011;32542;52.832;13.816;2023-04-07T04:07:14;5.18;;;3.20;;
17253;SDS011;32542;52.832;13.816;2023-04-07T04:10:24;4.30;;;2.88;;
17253;SDS011;32542;52.832;13.816;2023-04-07T04:13:28;4.70;;;2.97;;
17253;SDS011;32542;52.832;13.816;2023-04-07T04:16:35;4.10;;;3.05;;
17253;SDS011;32542;52.832;13.816;2023-04-07T04:19:47;4.22;;;3.05;;
17253;SDS011;32542;52.832;13.816;2023-04-07T04:23:01;4.30;;;3.20;;
17253;SDS011;32542;52.832;13.816;2023-04-07T04:26:04;3.90;;;3.05;;
17253;SDS011;32542;52.832;13.816;2023-04-07T04:29:08;4.13;;;2.88;;
17253;SDS011;32542;52.832;13.816;2023-04-07T04:32:13;6.30;;;3.88;;
17253;SDS011;32542;52.832;13.816;2023-04-07T04:35:18;4.32;;;2.85;;
17253;SDS011;32542;52.832;13.816;2023-04-07T04:38:39;3.70;;;2.95;;
17253;SDS011;32542;52.832;13.816;2023-04-07T04:41:53;4.38;;;2.92;;
17253;SDS011;32542;52.832;13.816;2023-04-07T04:45:04;4.32;;;2.83;;
17253;SDS011;32542;52.832;13.816;2023-04-07T04:48:08;4.65;;;3.13;;
17253;SDS011;32542;52.832;13.816;2023-04-07T04:51:12;4.30;;;2.85;;
17253;SDS011;32542;52.832;13.816;2023-04-07T04:54:17;5.03;;;3.25;;
17253;SDS011;32542;52.832;13.816;2023-04-07T04:57:21;3.95;;;2.75;;
17253;SDS011;32542;52.832;13.816;2023-04-07T05:00:24;4.93;;;3.00;;
17253;SDS011;32542;52.832;13.816;2023-04-07T05:03:32;4.15;;;3.00;;
17253;SDS011;32542;52.832;13.816;2023-04-07T05:06:39;4.38;;;2.80;;
17253;SDS011;32542;52.832;13.816;2023-04-07T05:09:46;4.03;;;3.03;;
17253;SDS011;32542;52.832;13.816;2023-04-07T05:12:52;3.63;;;2.88;;
17253;SDS011;32542;52.832;13.816;2023-04-07T05:15:54;4.97;;;2.95;;
17253;SDS011;32542;52.832;13.816;2023-04-07T05:18:57;4.55;;;3.00;;
17253;SDS011;32542;52.832;13.816;2023-04-07T05:22:01;5.20;;;3.13;;
17253;SDS011;32542;52.832;13.816;2023-04-07T05:25:10;4.50;;;3.00;;
17253;SDS011;32542;52.832;13.816;2023-04-07T05:28:15;4.13;;;2.97;;
17253;SDS011;32542;52.832;13.816;2023-04-07T05:31:19;3.55;;;2.80;;
17253;SDS011;32542;52.832;13.816;2023-04-07T05:34:25;3.45;;;2.50;;
17253;SDS011;32542;52.832;13.816;2023-04-07T05:37:30;4.75;;;3.30;;
17253;SDS011;32542;52.832;13.816;2023-04-07T05:40:38;4.63;;;3.00;;
17253;SDS011;32542;52.832;13.816;2023-04-07T05:43:44;4.47;;;2.78;;
17253;SDS011;32542;52.832;13.816;2023-04-07T05:46:49;4.43;;;3.13;;
17253;SDS011;32542;52.832;13.816;2023-04-07T05:49:55;3.45;;;2.65;;
17253;SDS011;32542;52.832;13.816;2023-04-07T05:52:57;5.28;;;2.95;;
17253;SDS011;32542;52.832;13.816;2023-04-07T05:56:02;4.38;;;2.72;;
17253;SDS011;32542;52.832;13.816;2023-04-07T05:59:16;4.50;;;3.10;;
17253;SDS011;32542;52.832;13.816;2023-04-07T06:02:19;3.30;;;2.58;;
17253;SDS011;32542;52.832;13.816;2023-04-07T06:05:23;4.60;;;2.92;;
17253;SDS011;32542;52.832;13.816;2023-04-07T06:08:29;5.07;;;2.90;;
17253;SDS011;32542;52.832;13.816;2023-04-07T06:11:34;6.03;;;3.00;;
17253;SDS011;32542;52.832;13.816;2023-04-07T06:14:37;6.20;;;2.90;;
17253;SDS011;32542;52.832;13.816;2023-04-07T06:17:40;4.20;;;2.85;;
17253;SDS011;32542;52.832;13.816;2023-04-07T06:20:44;4.47;;;2.83;;
17253;SDS011;32542;52.832;13.816;2023-04-07T06:23:47;4.05;;;2.65;;
17253;SDS011;32542;52.832;13.816;2023-04-07T06:26:51;3.53;;;2.80;;
17253;SDS011;32542;52.832;13.816;2023-04-07T06:29:56;5.28;;;2.90;;
17253;SDS011;32542;52.832;13.816;2023-04-07T06:32:59;4.97;;;3.20;;
17253;SDS011;32542;52.832;13.816;2023-04-07T06:36:02;3.50;;;2.53;;
17253;SDS011;32542;52.832;13.816;2023-04-07T06:39:05;4.60;;;2.95;;
17253;SDS011;32542;52.832;13.816;2023-04-07T06:42:09;4.43;;;2.83;;
17253;SDS011;32542;52.832;13.816;2023-04-07T06:45:22;4.00;;;2.80;;
17253;SDS011;32542;52.832;13.816;2023-04-07T06:48:25;3.83;;;2.70;;
17253;SDS011;32542;52.832;13.816;2023-04-07T06:51:28;3.80;;;2.75;;
17253;SDS011;32542;52.832;13.816;2023-04-07T06:54:32;3.75;;;2.83;;
17253;SDS011;32542;52.832;13.816;2023-04-07T06:57:36;3.53;;;2.70;;
17253;SDS011;32542;52.832;13.816;2023-04-07T07:00:39;4.32;;;3.08;;
17253;SDS011;32542;52.832;13.816;2023-04-07T07:03:41;3.83;;;2.53;;
17253;SDS011;32542;52.832;13.816;2023-04-07T07:06:44;3.83;;;2.55;;
17253;SDS011;32542;52.832;13.816;2023-04-07T07:09:47;6.60;;;3.05;;
17253;SDS011;32542;52.832;13.816;2023-04-07T07:12:51;6.18;;;2.83;;
17253;SDS011;32542;52.832;13.816;2023-04-07T07:15:54;11.50;;;3.08;;
17253;SDS011;32542;52.832;13.816;2023-04-07T07:18:57;21.40;;;3.97;;
17253;SDS011;32542;52.832;13.816;2023-04-07T07:22:00;10.00;;;3.22;;
17253;SDS011;32542;52.832;13.816;2023-04-07T07:25:04;16.92;;;5.25;;
17253;SDS011;32542;52.832;13.816;2023-04-07T07:28:09;17.98;;;4.82;;
17253;SDS011;32542;52.832;13.816;2023-04-07T07:31:12;21.70;;;4.35;;
17253;SDS011;32542;52.832;13.816;2023-04-07T07:34:16;10.70;;;3.60;;
17253;SDS011;32542;52.832;13.816;2023-04-07T07:37:18;11.00;;;3.90;;
17253;SDS011;32542;52.832;13.816;2023-04-07T07:40:21;6.95;;;4.03;;
17253;SDS011;32542;52.832;13.816;2023-04-07T07:43:26;7.70;;;3.80;;
17253;SDS011;32542;52.832;13.816;2023-04-07T07:46:28;8.40;;;3.45;;
17253;SDS011;32542;52.832;13.816;2023-04-07T07:49:31;9.18;;;3.22;;
17253;SDS011;32542;52.832;13.816;2023-04-07T07:52:34;6.78;;;3.40;;
17253;SDS011;32542;52.832;13.816;2023-04-07T07:55:37;16.02;;;5.70;;
17253;SDS011;32542;52.832;13.816;2023-04-07T07:58:41;16.55;;;4.63;;
17253;SDS011;32542;52.832;13.816;2023-04-07T08:01:44;19.27;;;4.38;;
17253;SDS011;32542;52.832;13.816;2023-04-07T08:04:47;11.13;;;4.13;;
17253;SDS011;32542;52.832;13.816;2023-04-07T08:07:51;22.63;;;5.15;;
17253;SDS011;32542;52.832;13.816;2023-04-07T08:10:55;24.58;;;4.72;;
17253;SDS011;32542;52.832;13.816;2023-04-07T08:13:59;18.50;;;4.65;;
17253;SDS011;32542;52.832;13.816;2023-04-07T08:17:02;25.90;;;4.45;;
17253;SDS011;32542;52.832;13.816;2023-04-07T08:20:05;28.27;;;4.53;;
17253;SDS011;32542;52.832;13.816;2023-04-07T08:23:10;34.03;;;5.40;;
17253;SDS011;32542;52.832;13.816;2023-04-07T08:26:13;31.60;;;5.10;;
17253;SDS011;32542;52.832;13.816;2023-04-07T08:29:17;31.88;;;5.25;;
17253;SDS011;32542;52.832;13.816;2023-04-07T08:32:20;27.98;;;5.22;;
17253;SDS011;32542;52.832;13.816;2023-04-07T08:35:23;49.22;;;6.40;;
17253;SDS011;32542;52.832;13.816;2023-04-07T08:38:26;51.47;;;5.40;;
17253;SDS011;32542;52.832;13.816;2023-04-07T08:41:29;37.40;;;4.82;;
17253;SDS011;32542;52.832;13.816;2023-04-07T08:44:38;38.20;;;4.63;;
17253;SDS011;32542;52.832;13.816;2023-04-07T08:47:41;27.00;;;5.40;;
17253;SDS011;32542;52.832;13.816;2023-04-07T08:50:45;23.38;;;4.15;;
17253;SDS011;32542;52.832;13.816;2023-04-07T08:53:53;38.28;;;5.85;;
17253;SDS011;32542;52.832;13.816;2023-04-07T08:57:02;25.95;;;4.10;;
17253;SDS011;32542;52.832;13.816;2023-04-07T09:00:07;22.73;;;4.55;;
17253;SDS011;32542;52.832;13.816;2023-04-07T09:03:11;33.53;;;5.20;;
17253;SDS011;32542;52.832;13.816;2023-04-07T09:06:15;38.45;;;4.70;;
17253;SDS011;32542;52.832;13.816;2023-04-07T09:09:18;32.95;;;4.63;;
17253;SDS011;32542;52.832;13.816;2023-04-07T09:12:21;32.53;;;4.57;;
17253;SDS011;32542;52.832;13.816;2023-04-07T09:15:27;29.10;;;4.30;;
17253;SDS011;32542;52.832;13.816;2023-04-07T09:18:31;16.77;;;4.03;;
17253;SDS011;32542;52.832;13.816;2023-04-07T09:21:47;27.23;;;4.60;;
17253;SDS011;32542;52.832;13.816;2023-04-07T09:24:51;25.77;;;4.40;;
17253;SDS011;32542;52.832;13.816;2023-04-07T09:27:57;35.15;;;5.32;;
17253;SDS011;32542;52.832;13.816;2023-04-07T09:31:03;37.33;;;5.18;;
17253;SDS011;32542;52.832;13.816;2023-04-07T09:34:05;34.35;;;5.25;;
17253;SDS011;32542;52.832;13.816;2023-04-07T09:37:26;35.22;;;4.57;;
17253;SDS011;32542;52.832;13.816;2023-04-07T09:40:28;20.75;;;4.75;;
17253;SDS011;32542;52.832;13.816;2023-04-07T09:43:31;21.10;;;4.63;;
17253;SDS011;32542;52.832;13.816;2023-04-07T09:46:48;36.80;;;5.88;;
17253;SDS011;32542;52.832;13.816;2023-04-07T09:49:52;31.90;;;5.38;;
17253;SDS011;32542;52.832;13.816;2023-04-07T09:52:57;33.58;;;6.03;;
17253;SDS011;32542;52.832;13.816;2023-04-07T09:55:59;31.30;;;4.97;;
17253;SDS011;32542;52.832;13.816;2023-04-07T09:59:03;32.20;;;5.75;;
17253;SDS011;32542;52.832;13.816;2023-04-07T10:02:07;27.05;;;4.93;;
17253;SDS011;32542;52.832;13.816;2023-04-07T10:05:10;30.23;;;5.22;;
17253;SDS011;32542;52.832;13.816;2023-04-07T10:08:13;28.52;;;5.72;;
17253;SDS011;32542;52.832;13.816;2023-04-07T10:11:17;33.67;;;6.07;;
17253;SDS011;32542;52.832;13.816;2023-04-07T10:14:21;40.15;;;5.55;;
17253;SDS011;32542;52.832;13.816;2023-04-07T10:17:28;47.47;;;6.20;;
17253;SDS011;32542;52.832;13.816;2023-04-07T10:20:32;40.55;;;5.93;;
17253;SDS011;32542;52.832;13.816;2023-04-07T10:23:48;36.45;;;4.82;;
17253;SDS011;32542;52.832;13.816;2023-04-07T10:26:58;33.17;;;5.43;;
17253;SDS011;32542;52.832;13.816;2023-04-07T10:30:06;32.95;;;5.45;;
17253;SDS011;32542;52.832;13.816;2023-04-07T10:33:16;29.20;;;5.00;;
17253;SDS011;32542;52.832;13.816;2023-04-07T10:36:20;35.00;;;5.32;;
17253;SDS011;32542;52.832;13.816;2023-04-07T10:39:23;42.00;;;5.95;;
17253;SDS011;32542;52.832;13.816;2023-04-07T10:42:43;44.92;;;6.15;;
17253;SDS011;32542;52.832;13.816;2023-04-07T10:45:50;44.58;;;6.32;;
17253;SDS011;32542;52.832;13.816;2023-04-07T10:49:07;48.17;;;5.68;;
17253;SDS011;32542;52.832;13.816;2023-04-07T10:52:21;45.97;;;6.35;;
17253;SDS011;32542;52.832;13.816;2023-04-07T10:55:30;51.05;;;6.60;;
17253;SDS011;32542;52.832;13.816;2023-04-07T10:58:34;56.65;;;7.20;;
17253;SDS011;32542;52.832;13.816;2023-04-07T11:01:38;31.58;;;5.40;;
17253;SDS011;32542;52.832;13.816;2023-04-07T11:05:45;25.38;;;5.57;;
17253;SDS011;32542;52.832;13.816;2023-04-07T11:08:48;38.90;;;5.07;;
17253;SDS011;32542;52.832;13.816;2023-04-07T11:11:51;43.97;;;6.40;;
17253;SDS011;32542;52.832;13.816;2023-04-07T11:14:54;33.83;;;5.10;;
17253;SDS011;32542;52.832;13.816;2023-04-07T11:18:10;35.88;;;5.95;;
17253;SDS011;32542;52.832;13.816;2023-04-07T11:21:19;41.33;;;5.47;;
17253;SDS011;32542;52.832;13.816;2023-04-07T11:24:30;32.65;;;5.65;;
17253;SDS011;32542;52.832;13.816;2023-04-07T11:27:34;37.25;;;5.55;;
17253;SDS011;32542;52.832;13.816;2023-04-07T11:30:37;29.40;;;5.82;;
17253;SDS011;32542;52.832;13.816;2023-04-07T11:33:41;31.27;;;5.07;;
17253;SDS011;32542;52.832;13.816;2023-04-07T11:36:45;27.58;;;5.32;;
17253;SDS011;32542;52.832;13.816;2023-04-07T11:39:50;29.67;;;4.95;;
17253;SDS011;32542;52.832;13.816;2023-04-07T11:42:54;27.95;;;6.55;;
17253;SDS011;32542;52.832;13.816;2023-04-07T11:46:04;40.55;;;8.90;;
17253;SDS011;32542;52.832;13.816;2023-04-07T11:49:09;78.05;;;31.80;;
17253;SDS011;32542;52.832;13.816;2023-04-07T11:52:15;55.40;;;24.42;;
17253;SDS011;32542;52.832;13.816;2023-04-07T11:55:18;50.95;;;25.50;;
17253;SDS011;32542;52.832;13.816;2023-04-07T11:58:22;57.33;;;25.42;;
17253;SDS011;32542;52.832;13.816;2023-04-07T12:01:37;51.72;;;23.02;;
17253;SDS011;32542;52.832;13.816;2023-04-07T12:04:54;73.20;;;24.17;;
17253;SDS011;32542;52.832;13.816;2023-04-07T12:07:59;54.17;;;24.98;;
17253;SDS011;32542;52.832;13.816;2023-04-07T12:11:03;60.88;;;26.63;;
17253;SDS011;32542;52.832;13.816;2023-04-07T12:14:06;48.72;;;20.50;;
17253;SDS011;32542;52.832;13.816;2023-04-07T12:17:18;69.43;;;23.77;;
17253;SDS011;32542;52.832;13.816;2023-04-07T12:20:22;69.88;;;26.13;;
17253;SDS011;32542;52.832;13.816;2023-04-07T12:23:26;59.10;;;27.48;;
17253;SDS011;32542;52.832;13.816;2023-04-07T12:26:29;66.13;;;24.42;;
17253;SDS011;32542;52.832;13.816;2023-04-07T12:29:32;61.33;;;28.52;;
17253;SDS011;32542;52.832;13.816;2023-04-07T12:32:35;56.08;;;29.83;;
17253;SDS011;32542;52.832;13.816;2023-04-07T12:35:38;62.22;;;24.15;;
17253;SDS011;32542;52.832;13.816;2023-04-07T12:38:42;67.80;;;25.85;;
17253;SDS011;32542;52.832;13.816;2023-04-07T12:41:45;58.53;;;23.95;;
17253;SDS011;32542;52.832;13.816;2023-04-07T12:44:49;57.83;;;22.83;;
17253;SDS011;32542;52.832;13.816;2023-04-07T12:47:52;55.22;;;22.55;;
17253;SDS011;32542;52.832;13.816;2023-04-07T12:50:55;60.08;;;22.30;;
17253;SDS011;32542;52.832;13.816;2023-04-07T12:53:59;57.50;;;22.33;;
17253;SDS011;32542;52.832;13.816;2023-04-07T12:57:02;57.13;;;21.67;;
17253;SDS011;32542;52.832;13.816;2023-04-07T13:00:05;63.03;;;20.58;;
17253;SDS011;32542;52.832;13.816;2023-04-07T13:03:09;53.30;;;20.23;;
17253;SDS011;32542;52.832;13.816;2023-04-07T13:06:12;53.05;;;20.52;;
17253;SDS011;32542;52.832;13.816;2023-04-07T13:09:16;75.82;;;21.40;;
17253;SDS011;32542;52.832;13.816;2023-04-07T13:12:19;59.50;;;19.95;;
17253;SDS011;32542;52.832;13.816;2023-04-07T13:15:22;50.97;;;19.13;;
17253;SDS011;32542;52.832;13.816;2023-04-07T13:18:25;59.45;;;18.95;;
17253;SDS011;32542;52.832;13.816;2023-04-07T13:21:28;48.00;;;17.17;;
17253;SDS011;32542;52.832;13.816;2023-04-07T13:24:35;48.10;;;17.23;;
17253;SDS011;32542;52.832;13.816;2023-04-07T13:27:38;52.20;;;18.05;;
17253;SDS011;32542;52.832;13.816;2023-04-07T13:30:41;46.28;;;17.20;;
17253;SDS011;32542;52.832;13.816;2023-04-07T13:33:44;61.22;;;17.55;;
17253;SDS011;32542;52.832;13.816;2023-04-07T13:36:47;58.42;;;16.33;;
17253;SDS011;32542;52.832;13.816;2023-04-07T13:39:52;37.25;;;16.48;;
17253;SDS011;32542;52.832;13.816;2023-04-07T13:42:54;41.35;;;15.55;;
17253;SDS011;32542;52.832;13.816;2023-04-07T13:45:58;36.63;;;15.40;;
17253;SDS011;32542;52.832;13.816;2023-04-07T13:49:01;36.45;;;15.13;;
17253;SDS011;32542;52.832;13.816;2023-04-07T13:52:04;47.33;;;15.20;;
17253;SDS011;32542;52.832;13.816;2023-04-07T13:55:08;38.55;;;14.90;;
17253;SDS011;32542;52.832;13.816;2023-04-07T13:58:11;33.95;;;13.75;;
17253;SDS011;32542;52.832;13.816;2023-04-07T14:01:14;30.85;;;14.30;;
17253;SDS011;32542;52.832;13.816;2023-04-07T14:04:17;35.33;;;14.07;;
17253;SDS011;32542;52.832;13.816;2023-04-07T14:07:20;40.42;;;14.57;;
17253;SDS011;32542;52.832;13.816;2023-04-07T14:10:24;34.38;;;14.38;;
17253;SDS011;32542;52.832;13.816;2023-04-07T14:13:27;42.10;;;14.02;;
17253;SDS011;32542;52.832;13.816;2023-04-07T14:16:30;31.98;;;13.50;;
17253;SDS011;32542;52.832;13.816;2023-04-07T14:19:33;29.55;;;12.63;;
17253;SDS011;32542;52.832;13.816;2023-04-07T14:22:36;36.08;;;13.55;;
17253;SDS011;32542;52.832;13.816;2023-04-07T14:25:40;33.50;;;13.07;;
17253;SDS011;32542;52.832;13.816;2023-04-07T14:28:43;33.20;;;13.13;;
17253;SDS011;32542;52.832;13.816;2023-04-07T14:31:46;32.70;;;13.27;;
17253;SDS011;32542;52.832;13.816;2023-04-07T14:34:49;33.78;;;12.45;;
17253;SDS011;32542;52.832;13.816;2023-04-07T14:37:52;37.10;;;14.23;;
17253;SDS011;32542;52.832;13.816;2023-04-07T14:40:57;34.95;;;12.85;;
17253;SDS011;32542;52.832;13.816;2023-04-07T14:44:10;29.65;;;11.95;;
17253;SDS011;32542;52.832;13.816;2023-04-07T14:47:13;30.73;;;11.73;;
17253;SDS011;32542;52.832;13.816;2023-04-07T14:50:16;23.95;;;11.48;;
17253;SDS011;32542;52.832;13.816;2023-04-07T14:53:19;26.77;;;12.10;;
17253;SDS011;32542;52.832;13.816;2023-04-07T15:00:28;26.73;;;11.27;;
17253;SDS011;32542;52.832;13.816;2023-04-07T15:03:31;27.42;;;7.85;;
17253;SDS011;32542;52.832;13.816;2023-04-07T15:06:35;7.70;;;5.25;;
17253;SDS011;32542;52.832;13.816;2023-04-07T15:09:38;20.55;;;6.68;;
17253;SDS011;32542;52.832;13.816;2023-04-07T15:12:40;15.30;;;6.90;;
17253;SDS011;32542;52.832;13.816;2023-04-07T15:15:45;18.90;;;6.10;;
17253;SDS011;32542;52.832;13.816;2023-04-07T15:18:48;16.20;;;6.70;;
17253;SDS011;32542;52.832;13.816;2023-04-07T15:21:51;14.05;;;6.38;;
17253;SDS011;32542;52.832;13.816;2023-04-07T15:24:54;13.02;;;6.72;;
17253;SDS011;32542;52.832;13.816;2023-04-07T15:27:57;14.00;;;6.22;;
17253;SDS011;32542;52.832;13.816;2023-04-07T15:31:01;14.80;;;5.85;;
17253;SDS011;32542;52.832;13.816;2023-04-07T15:34:04;13.85;;;6.05;;
17253;SDS011;32542;52.832;13.816;2023-04-07T15:37:06;14.00;;;6.63;;
17253;SDS011;32542;52.832;13.816;2023-04-07T15:40:10;12.05;;;6.05;;
17253;SDS011;32542;52.832;13.816;2023-04-07T15:43:13;12.38;;;5.95;;
17253;SDS011;32542;52.832;13.816;2023-04-07T15:46:17;11.45;;;5.85;;
17253;SDS011;32542;52.832;13.816;2023-04-07T15:49:20;13.07;;;5.90;;
17253;SDS011;32542;52.832;13.816;2023-04-07T15:52:26;14.60;;;6.30;;
17253;SDS011;32542;52.832;13.816;2023-04-07T15:55:29;18.02;;;5.72;;
17253;SDS011;32542;52.832;13.816;2023-04-07T15:58:32;13.25;;;6.63;;
17253;SDS011;32542;52.832;13.816;2023-04-07T16:01:36;21.10;;;6.47;;
17253;SDS011;32542;52.832;13.816;2023-04-07T16:04:39;14.13;;;5.88;;
17253;SDS011;32542;52.832;13.816;2023-04-07T16:07:42;20.95;;;6.20;;
17253;SDS011;32542;52.832;13.816;2023-04-07T16:10:45;18.83;;;5.88;;
17253;SDS011;32542;52.832;13.816;2023-04-07T16:13:48;14.95;;;5.80;;
17253;SDS011;32542;52.832;13.816;2023-04-07T16:16:52;15.95;;;5.43;;
17253;SDS011;32542;52.832;13.816;2023-04-07T16:19:59;18.42;;;6.18;;
17253;SDS011;32542;52.832;13.816;2023-04-07T16:23:02;15.50;;;5.68;;
17253;SDS011;32542;52.832;13.816;2023-04-07T16:26:05;13.27;;;5.38;;
17253;SDS011;32542;52.832;13.816;2023-04-07T16:29:07;13.13;;;5.75;;
17253;SDS011;32542;52.832;13.816;2023-04-07T16:32:12;13.30;;;5.15;;
17253;SDS011;32542;52.832;13.816;2023-04-07T16:35:15;11.30;;;4.95;;
17253;SDS011;32542;52.832;13.816;2023-04-07T16:38:18;18.00;;;5.00;;
17253;SDS011;32542;52.832;13.816;2023-04-07T16:41:21;14.63;;;5.00;;
17253;SDS011;32542;52.832;13.816;2023-04-07T16:44:23;15.02;;;5.30;;
17253;SDS011;32542;52.832;13.816;2023-04-07T16:47:28;10.75;;;5.28;;
17253;SDS011;32542;52.832;13.816;2023-04-07T16:50:32;17.70;;;5.45;;
17253;SDS011;32542;52.832;13.816;2023-04-07T16:53:34;14.07;;;4.85;;
17253;SDS011;32542;52.832;13.816;2023-04-07T16:56:37;10.93;;;4.95;;
17253;SDS011;32542;52.832;13.816;2023-04-07T16:59:41;13.07;;;5.22;;
17253;SDS011;32542;52.832;13.816;2023-04-07T17:02:45;11.02;;;4.50;;
17253;SDS011;32542;52.832;13.816;2023-04-07T17:05:48;7.80;;;4.25;;
17253;SDS011;32542;52.832;13.816;2023-04-07T17:08:51;13.25;;;4.60;;
17253;SDS011;32542;52.832;13.816;2023-04-07T17:11:54;8.05;;;4.60;;
17253;SDS011;32542;52.832;13.816;2023-04-07T17:14:56;8.18;;;4.38;;
17253;SDS011;32542;52.832;13.816;2023-04-07T17:18:01;11.27;;;5.20;;
17253;SDS011;32542;52.832;13.816;2023-04-07T17:21:04;9.15;;;4.55;;
17253;SDS011;32542;52.832;13.816;2023-04-07T17:24:07;11.95;;;4.90;;
17253;SDS011;32542;52.832;13.816;2023-04-07T17:27:09;9.52;;;4.43;;
17253;SDS011;32542;52.832;13.816;2023-04-07T17:30:12;11.23;;;4.35;;
17253;SDS011;32542;52.832;13.816;2023-04-07T17:33:17;9.23;;;4.40;;
17253;SDS011;32542;52.832;13.816;2023-04-07T17:36:19;11.65;;;5.13;;
17253;SDS011;32542;52.832;13.816;2023-04-07T17:39:22;10.93;;;4.30;;
17253;SDS011;32542;52.832;13.816;2023-04-07T17:42:26;11.52;;;3.85;;
17253;SDS011;32542;52.832;13.816;2023-04-07T17:45:28;8.40;;;4.10;;
17253;SDS011;32542;52.832;13.816;2023-04-07T17:48:33;20.83;;;5.32;;
17253;SDS011;32542;52.832;13.816;2023-04-07T17:58:37;11.88;;;4.10;;
17253;SDS011;32542;52.832;13.816;2023-04-07T18:01:40;17.90;;;4.22;;
17253;SDS011;32542;52.832;13.816;2023-04-07T18:04:44;11.30;;;4.57;;
17253;SDS011;32542;52.832;13.816;2023-04-07T18:07:47;13.60;;;4.10;;
17253;SDS011;32542;52.832;13.816;2023-04-07T18:10:50;11.02;;;4.35;;
17253;SDS011;32542;52.832;13.816;2023-04-07T18:13:53;15.05;;;4.25;;
17253;SDS011;32542;52.832;13.816;2023-04-07T18:16:56;8.50;;;3.78;;
17253;SDS011;32542;52.832;13.816;2023-04-07T18:20:00;5.55;;;3.40;;
17253;SDS011;32542;52.832;13.816;2023-04-07T18:23:05;11.43;;;4.18;;
17253;SDS011;32542;52.832;13.816;2023-04-07T18:26:08;11.10;;;3.85;;